createdAt,value
2023-03-21T00:01:06.654Z,8.67218
2023-03-21T00:02:15.354Z,8.692322
2023-03-21T00:03:24.979Z,8.712463
2023-03-21T00:04:44.762Z,8.702393
2023-03-21T00:05:45.326Z,8.712463
2023-03-21T00:06:54.909Z,8.702393
2023-03-21T00:08:03.561Z,8.702393
2023-03-21T00:09:11.219Z,8.712463
2023-03-21T00:10:29.903Z,8.692322
2023-03-21T00:11:31.514Z,8.702393
2023-03-21T00:12:41.193Z,8.692322
2023-03-21T00:13:50.836Z,8.702393
2023-03-21T00:15:00.509Z,8.702393
2023-03-21T00:16:10.296Z,8.702393
2023-03-21T00:17:20.777Z,8.702393
2023-03-21T00:18:30.423Z,8.702393
2023-03-21T00:19:40.102Z,8.702393
2023-03-21T00:20:49.765Z,8.712463
2023-03-21T00:22:07.278Z,8.702393
2023-03-21T00:23:10.026Z,8.702393
2023-03-21T00:24:18.706Z,8.692322
2023-03-21T00:25:28.395Z,8.692322
2023-03-21T00:26:37.039Z,8.692322
2023-03-21T00:28:01.343Z,8.67218
2023-03-21T00:28:57.346Z,8.67218
2023-03-21T00:30:04.994Z,8.692322
2023-03-21T00:31:13.678Z,8.641968
2023-03-21T00:32:23.335Z,8.631897
2023-03-21T00:33:31.993Z,8.611755
2023-03-21T00:34:43.655Z,8.611755
2023-03-21T00:35:58.604Z,8.611755
2023-03-21T00:37:02.911Z,8.641968
2023-03-21T00:38:12.564Z,8.601685
2023-03-21T00:39:21.223Z,8.611755
2023-03-21T00:40:35.135Z,8.611755
2023-03-21T00:41:43.284Z,8.641968
2023-03-21T00:42:49.191Z,8.641968
2023-03-21T00:43:58.835Z,8.662109
2023-03-21T00:45:08.512Z,8.67218
2023-03-21T00:46:17.206Z,8.692322
2023-03-21T00:47:27.816Z,8.702393
2023-03-21T00:48:36.634Z,8.702393
2023-03-21T00:49:45.117Z,8.692322
2023-03-21T00:50:54.818Z,8.702393
2023-03-21T00:52:15.025Z,8.692322
2023-03-21T00:53:14.080Z,8.692322
2023-03-21T00:54:23.745Z,8.67218
2023-03-21T00:55:32.416Z,8.692322
2023-03-21T00:56:42.069Z,8.67218
2023-03-21T00:57:59.733Z,8.692322
2023-03-21T00:59:01.373Z,8.67218
2023-03-21T01:00:11.072Z,8.692322
2023-03-21T01:01:19.687Z,8.702393
2023-03-21T01:02:29.362Z,8.692322
2023-03-21T01:03:39.023Z,8.712463
2023-03-21T01:04:46.671Z,8.732605
2023-03-21T01:05:56.377Z,8.732605
2023-03-21T01:07:05.033Z,8.742676
2023-03-21T01:08:23.934Z,8.742676
2023-03-21T01:09:24.317Z,8.782959
2023-03-21T01:10:31.994Z,8.79303
2023-03-21T01:11:41.677Z,8.79303
2023-03-21T01:12:51.303Z,8.782959
2023-03-21T01:14:11.129Z,8.79303
2023-03-21T01:15:10.594Z,8.79303
2023-03-21T01:16:20.344Z,8.813171
2023-03-21T01:17:29.932Z,8.79303
2023-03-21T01:18:38.577Z,8.782959
2023-03-21T01:19:51.857Z,8.742676
2023-03-21T01:20:56.872Z,8.762817
2023-03-21T01:22:05.522Z,8.782959
2023-03-21T01:23:15.178Z,8.813171
2023-03-21T01:24:23.831Z,8.813171
2023-03-21T01:25:33.522Z,8.823242
2023-03-21T01:26:42.216Z,8.823242
2023-03-21T01:27:49.860Z,8.843384
2023-03-21T01:28:59.523Z,8.823242
2023-03-21T01:30:19.009Z,8.853455
2023-03-21T01:31:19.894Z,8.843384
2023-03-21T01:32:29.512Z,8.843384
2023-03-21T01:33:39.167Z,8.853455
2023-03-21T01:34:47.813Z,8.873596
2023-03-21T01:36:10.193Z,8.853455
2023-03-21T01:37:08.193Z,8.883667
2023-03-21T01:38:17.790Z,8.843384
2023-03-21T01:39:27.445Z,8.853455
2023-03-21T01:40:36.103Z,8.873596
2023-03-21T01:41:45.780Z,8.883667
2023-03-21T01:42:54.436Z,8.883667
2023-03-21T01:44:03.095Z,8.873596
2023-03-21T01:45:12.767Z,8.873596
2023-03-21T01:46:19.473Z,8.873596
2023-03-21T01:47:29.187Z,8.873596
2023-03-21T01:48:38.749Z,8.883667
2023-03-21T01:49:47.402Z,8.873596
2023-03-21T01:50:57.079Z,8.873596
2023-03-21T01:52:13.002Z,8.853455
2023-03-21T01:53:17.363Z,8.893738
2023-03-21T01:54:27.026Z,8.873596
2023-03-21T01:55:35.907Z,8.873596
2023-03-21T01:56:44.355Z,8.883667
2023-03-21T01:58:04.657Z,8.883667
2023-03-21T01:59:04.631Z,8.883667
2023-03-21T02:00:14.296Z,8.873596
2023-03-21T02:01:23.088Z,8.873596
2023-03-21T02:02:32.663Z,8.853455
2023-03-21T02:03:42.321Z,8.843384
2023-03-21T02:04:49.953Z,8.843384
2023-03-21T02:05:58.611Z,8.823242
2023-03-21T02:07:08.296Z,8.823242
2023-03-21T02:08:15.952Z,8.843384
2023-03-21T02:09:26.597Z,8.853455
2023-03-21T02:10:35.258Z,8.853455
2023-03-21T02:11:42.933Z,8.873596
2023-03-21T02:12:52.594Z,8.883667
2023-03-21T02:14:06.517Z,8.883667
2023-03-21T02:15:09.902Z,8.873596
2023-03-21T02:16:19.637Z,8.883667
2023-03-21T02:17:28.230Z,8.883667
2023-03-21T02:18:37.900Z,8.893738
2023-03-21T02:19:52.870Z,8.873596
2023-03-21T02:20:57.167Z,8.873596
2023-03-21T02:22:06.844Z,8.853455
2023-03-21T02:23:16.510Z,8.883667
2023-03-21T02:24:26.162Z,8.873596
2023-03-21T02:25:36.089Z,8.883667
2023-03-21T02:26:45.102Z,8.873596
2023-03-21T02:27:54.112Z,8.883667
2023-03-21T02:29:02.768Z,8.883667
2023-03-21T02:30:17.323Z,8.873596
2023-03-21T02:31:22.133Z,8.853455
2023-03-21T02:32:37.260Z,8.873596
2023-03-21T02:33:40.407Z,8.843384
2023-03-21T02:34:50.044Z,8.873596
2023-03-21T02:36:03.164Z,8.873596
2023-03-21T02:37:09.337Z,8.883667
2023-03-21T02:38:19.017Z,8.893738
2023-03-21T02:39:27.655Z,8.92395
2023-03-21T02:40:37.504Z,8.92395
2023-03-21T02:41:46.995Z,8.913879
2023-03-21T02:43:00.372Z,8.92395
2023-03-21T02:44:07.290Z,8.92395
2023-03-21T02:45:15.942Z,8.913879
2023-03-21T02:46:30.843Z,8.913879
2023-03-21T02:47:36.284Z,8.92395
2023-03-21T02:48:50.500Z,8.92395
2023-03-21T02:49:53.555Z,8.92395
2023-03-21T02:51:01.209Z,8.92395
2023-03-21T02:52:16.941Z,8.944092
2023-03-21T02:53:20.510Z,8.944092
2023-03-21T02:54:42.023Z,8.92395
2023-03-21T02:55:40.803Z,8.92395
2023-03-21T02:56:48.487Z,8.913879
2023-03-21T02:57:56.368Z,8.913879
2023-03-21T02:59:06.778Z,8.913879
2023-03-21T03:00:16.852Z,8.913879
2023-03-21T03:01:23.091Z,8.913879
2023-03-21T03:02:32.766Z,8.913879
2023-03-21T03:03:41.410Z,8.913879
2023-03-21T03:04:51.085Z,8.893738
2023-03-21T03:06:00.720Z,8.883667
2023-03-21T03:07:09.405Z,8.883667
2023-03-21T03:08:19.268Z,8.883667
2023-03-21T03:09:29.691Z,8.883667
2023-03-21T03:10:38.674Z,8.873596
2023-03-21T03:11:48.052Z,8.893738
2023-03-21T03:12:55.719Z,8.893738
2023-03-21T03:14:21.374Z,8.92395
2023-03-21T03:15:16.023Z,8.92395
2023-03-21T03:16:25.675Z,8.954163
2023-03-21T03:17:35.355Z,8.954163
2023-03-21T03:18:43.029Z,8.944092
2023-03-21T03:19:51.683Z,8.944092
2023-03-21T03:20:59.342Z,8.92395
2023-03-21T03:22:09.018Z,8.92395
2023-03-21T03:23:18.681Z,8.92395
2023-03-21T03:24:27.337Z,8.944092
2023-03-21T03:25:42.714Z,8.954163
2023-03-21T03:26:46.645Z,8.954163
2023-03-21T03:27:54.323Z,8.954163
2023-03-21T03:29:03.967Z,8.974304
2023-03-21T03:30:12.660Z,8.974304
2023-03-21T03:31:21.311Z,8.974304
2023-03-21T03:32:32.006Z,9.004517
2023-03-21T03:33:41.671Z,8.994446
2023-03-21T03:34:51.333Z,9.024658
2023-03-21T03:36:05.376Z,9.024658
2023-03-21T03:37:10.669Z,9.004517
2023-03-21T03:38:20.312Z,8.994446
2023-03-21T03:39:28.962Z,8.994446
2023-03-21T03:40:38.812Z,8.994446
2023-03-21T03:42:58.911Z,9.004517
2023-03-21T03:44:08.567Z,9.004517
2023-03-21T03:45:18.225Z,9.004517
2023-03-21T03:46:26.993Z,9.004517
2023-03-21T03:47:42.010Z,9.004517
2023-03-21T03:48:47.226Z,9.004517
2023-03-21T03:49:56.885Z,9.024658
2023-03-21T03:51:06.542Z,9.024658
2023-03-21T03:52:16.229Z,9.024658
2023-03-21T03:53:25.899Z,8.994446
2023-03-21T03:54:34.569Z,9.004517
2023-03-21T03:55:43.224Z,8.994446
2023-03-21T03:56:52.886Z,8.994446
2023-03-21T03:58:00.715Z,9.004517
2023-03-21T03:59:11.214Z,9.004517
2023-03-21T04:00:20.892Z,9.004517
2023-03-21T04:01:30.578Z,8.994446
2023-03-21T04:02:40.300Z,9.004517
2023-03-21T04:03:54.554Z,9.004517
2023-03-21T04:05:00.501Z,8.994446
2023-03-21T04:06:10.153Z,8.994446
2023-03-21T04:07:19.841Z,8.974304
2023-03-21T04:08:29.515Z,8.954163
2023-03-21T04:09:44.389Z,8.974304
2023-03-21T04:10:48.818Z,8.954163
2023-03-21T04:11:58.472Z,8.954163
2023-03-21T04:13:08.153Z,8.944092
2023-03-21T04:14:17.816Z,8.944092
2023-03-21T04:15:28.453Z,8.92395
2023-03-21T04:16:38.189Z,8.944092
2023-03-21T04:17:46.819Z,8.944092
2023-03-21T04:18:56.482Z,8.944092
2023-03-21T04:20:11.930Z,8.92395
2023-03-21T04:21:15.758Z,8.92395
2023-03-21T04:22:24.489Z,8.944092
2023-03-21T04:23:33.149Z,8.954163
2023-03-21T04:24:42.808Z,8.954163
2023-03-21T04:25:56.529Z,8.944092
2023-03-21T04:27:01.205Z,8.92395
2023-03-21T04:28:10.819Z,8.944092
2023-03-21T04:29:20.480Z,8.913879
2023-03-21T04:30:30.143Z,8.913879
2023-03-21T04:31:39.822Z,8.92395
2023-03-21T04:32:49.486Z,8.913879
2023-03-21T04:33:59.146Z,8.893738
2023-03-21T04:35:07.833Z,8.913879
2023-03-21T04:36:17.484Z,8.92395
2023-03-21T04:37:27.144Z,8.913879
2023-03-21T04:38:35.974Z,8.893738
2023-03-21T04:39:45.608Z,8.893738
2023-03-21T04:40:55.322Z,8.893738
2023-03-21T04:42:03.990Z,8.893738
2023-03-21T04:43:13.666Z,8.893738
2023-03-21T04:44:22.325Z,8.893738
2023-03-21T04:45:32.022Z,8.893738
2023-03-21T04:46:41.673Z,8.913879
2023-03-21T04:47:50.391Z,8.913879
2023-03-21T04:49:00.029Z,8.92395
2023-03-21T04:50:09.684Z,8.92395
2023-03-21T04:51:19.348Z,8.913879
2023-03-21T04:52:29.007Z,8.92395
2023-03-21T04:53:37.724Z,8.913879
2023-03-21T04:54:47.369Z,8.893738
2023-03-21T04:55:57.018Z,8.893738
2023-03-21T04:57:06.677Z,8.883667
2023-03-21T04:58:16.315Z,8.893738
2023-03-21T04:59:26.003Z,8.883667
2023-03-21T05:00:34.672Z,8.913879
2023-03-21T05:01:44.325Z,8.913879
2023-03-21T05:02:51.994Z,8.944092
2023-03-21T05:04:01.819Z,8.944092
2023-03-21T05:05:11.394Z,8.954163
2023-03-21T05:06:21.020Z,8.974304
2023-03-21T05:07:30.706Z,8.994446
2023-03-21T05:08:39.428Z,8.994446
2023-03-21T05:09:49.121Z,8.994446
2023-03-21T05:10:58.748Z,8.974304
2023-03-21T05:12:07.456Z,8.974304
2023-03-21T05:13:16.151Z,8.944092
2023-03-21T05:14:24.946Z,8.944092
2023-03-21T05:15:33.595Z,8.913879
2023-03-21T05:16:43.259Z,8.913879
2023-03-21T05:17:52.929Z,8.893738
2023-03-21T05:19:02.636Z,8.893738
2023-03-21T05:20:12.303Z,8.873596
2023-03-21T05:21:21.964Z,8.873596
2023-03-21T05:22:31.671Z,8.843384
2023-03-21T05:23:39.427Z,8.843384
2023-03-21T05:24:48.096Z,8.853455
2023-03-21T05:25:57.781Z,8.843384
2023-03-21T05:27:06.424Z,8.843384
2023-03-21T05:28:16.077Z,8.843384
2023-03-21T05:29:25.976Z,8.873596
2023-03-21T05:30:33.665Z,8.883667
2023-03-21T05:31:43.328Z,8.913879
2023-03-21T05:32:51.980Z,8.944092
2023-03-21T05:34:01.682Z,8.994446
2023-03-21T05:35:11.325Z,9.024658
2023-03-21T05:36:21.017Z,9.004517
2023-03-21T05:37:30.650Z,9.034729
2023-03-21T05:38:40.316Z,9.064941
2023-03-21T05:39:48.989Z,9.095154
2023-03-21T05:40:58.737Z,9.125366
2023-03-21T05:42:08.352Z,9.125366
2023-03-21T05:43:18.011Z,9.135437
2023-03-21T05:44:27.672Z,9.185791
2023-03-21T05:45:37.597Z,9.155579
2023-03-21T05:46:46.988Z,9.185791
2023-03-21T05:47:56.658Z,9.185791
2023-03-21T05:49:06.337Z,9.185791
2023-03-21T05:50:16.010Z,9.185791
2023-03-21T05:51:24.682Z,9.17572
2023-03-21T05:52:33.326Z,9.17572
2023-03-21T05:53:42.985Z,9.185791
2023-03-21T05:54:51.695Z,9.155579
2023-03-21T05:56:01.368Z,9.17572
2023-03-21T05:57:11.062Z,9.185791
2023-03-21T05:58:19.688Z,9.185791
2023-03-21T05:59:29.369Z,9.216003
2023-03-21T06:00:38.020Z,9.216003
2023-03-21T06:01:47.678Z,9.205933
2023-03-21T06:02:57.374Z,9.246216
2023-03-21T06:04:07.035Z,9.226074
2023-03-21T06:05:16.678Z,9.226074
2023-03-21T06:06:26.339Z,9.246216
2023-03-21T06:07:33.978Z,9.276428
2023-03-21T06:08:43.669Z,9.286499
2023-03-21T06:09:51.341Z,9.276428
2023-03-21T06:11:01.009Z,9.276428
2023-03-21T06:12:10.656Z,9.306641
2023-03-21T06:13:19.332Z,9.316711
2023-03-21T06:14:28.990Z,9.367065
2023-03-21T06:15:37.864Z,9.367065
2023-03-21T06:16:46.291Z,9.387207
2023-03-21T06:17:55.983Z,9.42749
2023-03-21T06:19:05.620Z,9.457703
2023-03-21T06:20:14.294Z,9.467773
2023-03-21T06:21:25.794Z,9.497986
2023-03-21T06:22:31.589Z,9.54834
2023-03-21T06:23:41.254Z,9.558411
2023-03-21T06:24:49.963Z,9.538269
2023-03-21T06:25:59.594Z,9.558411
2023-03-21T06:27:08.268Z,9.618835
2023-03-21T06:28:16.915Z,9.649048
2023-03-21T06:29:26.575Z,9.618835
2023-03-21T06:30:36.253Z,9.67926
2023-03-21T06:31:46.036Z,9.689331
2023-03-21T06:32:55.653Z,9.729614
2023-03-21T06:34:05.311Z,9.769897
2023-03-21T06:35:12.989Z,9.790039
2023-03-21T06:36:22.659Z,9.80011
2023-03-21T06:37:31.364Z,9.860535
2023-03-21T06:38:40.013Z,9.890747
2023-03-21T06:39:49.692Z,9.890747
2023-03-21T06:40:58.434Z,9.910889
2023-03-21T06:42:08.050Z,9.941101
2023-03-21T06:43:17.707Z,9.981384
2023-03-21T06:44:26.361Z,9.981384
2023-03-21T06:45:36.380Z,10.041809
2023-03-21T06:46:45.816Z,10.072021
2023-03-21T06:47:55.465Z,10.05188
2023-03-21T06:49:05.092Z,10.092163
2023-03-21T06:50:12.770Z,10.102234
2023-03-21T06:51:22.440Z,10.122375
2023-03-21T06:52:31.138Z,10.162659
2023-03-21T06:53:40.793Z,10.202942
2023-03-21T06:54:50.442Z,10.253296
2023-03-21T06:55:58.124Z,10.263367
2023-03-21T06:57:06.794Z,10.283508
2023-03-21T06:58:16.472Z,10.30365
2023-03-21T06:59:25.121Z,10.333862
2023-03-21T07:00:34.842Z,10.354004
2023-03-21T07:01:44.508Z,10.384216
2023-03-21T07:02:54.230Z,10.414429
2023-03-21T07:04:03.801Z,10.484924
2023-03-21T07:05:11.473Z,10.55542
2023-03-21T07:06:21.141Z,10.585632
2023-03-21T07:07:30.829Z,10.67627
2023-03-21T07:08:38.532Z,10.68634
2023-03-21T07:09:48.189Z,10.756836
2023-03-21T07:10:57.880Z,10.817261
2023-03-21T07:12:07.523Z,10.917969
2023-03-21T07:13:17.171Z,10.968323
2023-03-21T07:14:26.840Z,11.038818
2023-03-21T07:15:36.721Z,11.048889
2023-03-21T07:16:46.309Z,11.109314
2023-03-21T07:17:54.921Z,11.139526
2023-03-21T07:19:03.604Z,11.220093
2023-03-21T07:20:13.281Z,11.230164
2023-03-21T07:21:22.981Z,11.300659
2023-03-21T07:22:32.690Z,11.300659
2023-03-21T07:23:42.351Z,11.320801
2023-03-21T07:25:02.597Z,11.320801
2023-03-21T07:26:01.686Z,11.401367
2023-03-21T07:27:09.358Z,11.451721
2023-03-21T07:28:19.008Z,11.512146
2023-03-21T07:29:27.694Z,11.552429
2023-03-21T07:30:37.384Z,11.522217
2023-03-21T07:31:47.106Z,11.542358
2023-03-21T07:32:56.725Z,11.481934
2023-03-21T07:34:05.432Z,11.401367
2023-03-21T07:35:15.066Z,11.351013
2023-03-21T07:36:23.801Z,11.300659
2023-03-21T07:37:32.452Z,11.330872
2023-03-21T07:38:42.182Z,11.351013
2023-03-21T07:39:49.811Z,11.361084
2023-03-21T07:40:59.495Z,11.371155
2023-03-21T07:44:27.475Z,11.44165
2023-03-21T07:45:36.323Z,11.451721
2023-03-21T07:46:44.789Z,11.542358
2023-03-21T07:47:54.499Z,11.622925
2023-03-21T07:49:04.130Z,11.602783
2023-03-21T07:50:13.821Z,11.663208
2023-03-21T07:51:21.484Z,11.703491
2023-03-21T07:52:31.150Z,11.81427
2023-03-21T07:53:39.828Z,11.864624
2023-03-21T07:54:48.465Z,11.93512
2023-03-21T07:55:58.175Z,11.995544
2023-03-21T07:57:06.829Z,11.985474
2023-03-21T07:58:16.484Z,11.995544
2023-03-21T07:59:26.144Z,12.06604
2023-03-21T08:00:36.836Z,12.146606
2023-03-21T08:01:46.536Z,12.19696
2023-03-21T08:02:58.652Z,12.176819
2023-03-21T08:04:04.979Z,12.146606
2023-03-21T08:05:14.656Z,12.19696
2023-03-21T08:06:24.406Z,12.217102
2023-03-21T08:07:33.003Z,12.287598
2023-03-21T08:08:42.684Z,12.31781
2023-03-21T08:09:51.342Z,12.398376
2023-03-21T08:11:01.005Z,12.388306
2023-03-21T08:12:10.694Z,12.489014
2023-03-21T08:13:20.362Z,12.398376
2023-03-21T08:14:30.044Z,12.398376
2023-03-21T08:15:39.015Z,12.287598
2023-03-21T08:16:49.511Z,12.146606
2023-03-21T08:17:59.067Z,12.055969
2023-03-21T08:19:06.729Z,12.096252
2023-03-21T08:20:16.423Z,12.176819
2023-03-21T08:21:26.113Z,12.267456
2023-03-21T08:22:33.797Z,12.277527
2023-03-21T08:23:43.433Z,12.398376
2023-03-21T08:24:51.102Z,12.529297
2023-03-21T08:26:00.758Z,12.579651
2023-03-21T08:27:10.435Z,12.650146
2023-03-21T08:28:19.121Z,12.7005
2023-03-21T08:29:28.780Z,12.781067
2023-03-21T08:30:38.567Z,12.781067
2023-03-21T08:31:47.146Z,12.750854
2023-03-21T08:32:58.816Z,12.730713
2023-03-21T08:34:06.471Z,12.82135
2023-03-21T08:35:15.168Z,12.82135
2023-03-21T08:36:24.875Z,12.750854
2023-03-21T08:37:33.547Z,12.750854
2023-03-21T08:38:42.242Z,12.801208
2023-03-21T08:39:51.974Z,12.871704
2023-03-21T08:41:00.646Z,12.9422
2023-03-21T08:42:10.317Z,12.911987
2023-03-21T08:43:18.962Z,12.972412
2023-03-21T08:44:27.624Z,12.952271
2023-03-21T08:45:37.602Z,12.911987
2023-03-21T08:46:45.095Z,12.9422
2023-03-21T08:47:54.698Z,12.972412
2023-03-21T08:49:03.312Z,13.093262
2023-03-21T08:50:12.999Z,13.19397
2023-03-21T08:51:22.664Z,13.274536
2023-03-21T08:52:32.329Z,13.385315
2023-03-21T08:53:42.061Z,13.526306
2023-03-21T08:54:51.783Z,13.556519
2023-03-21T08:56:00.432Z,13.596802
2023-03-21T08:57:10.102Z,13.596802
2023-03-21T08:58:18.763Z,13.526306
2023-03-21T08:59:28.452Z,13.405457
2023-03-21T09:00:38.186Z,13.405457
2023-03-21T09:01:46.973Z,13.345032
2023-03-21T09:02:56.523Z,13.334961
2023-03-21T09:04:06.194Z,13.234253
2023-03-21T09:05:14.879Z,13.224182
2023-03-21T09:06:23.543Z,13.254395
2023-03-21T09:07:32.225Z,13.284607
2023-03-21T09:08:40.902Z,13.274536
2023-03-21T09:09:53.686Z,13.224182
2023-03-21T09:11:01.258Z,13.163757
2023-03-21T09:12:10.896Z,13.234253
2023-03-21T09:13:20.559Z,13.274536
2023-03-21T09:14:29.457Z,13.304749
2023-03-21T09:15:39.077Z,13.385315
2023-03-21T09:16:48.582Z,13.526306
2023-03-21T09:17:57.255Z,13.647156
2023-03-21T09:19:06.905Z,13.768005
2023-03-21T09:20:14.581Z,13.888855
2023-03-21T09:21:24.307Z,13.768005
2023-03-21T09:22:33.974Z,13.556519
2023-03-21T09:23:42.630Z,13.455811
2023-03-21T09:24:52.309Z,13.526306
2023-03-21T09:26:01.996Z,13.667297
2023-03-21T09:27:10.712Z,13.788147
2023-03-21T09:28:20.371Z,13.959351
2023-03-21T09:29:30.043Z,14.029846
2023-03-21T09:30:39.742Z,14.110413
2023-03-21T09:31:49.469Z,14.170837
2023-03-21T09:32:57.147Z,14.231262
2023-03-21T09:34:06.823Z,14.20105
2023-03-21T09:35:15.634Z,14.170837
2023-03-21T09:36:25.418Z,14.221191
2023-03-21T09:37:34.983Z,14.20105
2023-03-21T09:38:43.658Z,14.150696
2023-03-21T09:39:53.702Z,13.999634
2023-03-21T09:41:04.536Z,13.808289
2023-03-21T09:42:13.153Z,13.556519
2023-03-21T09:43:21.534Z,13.455811
2023-03-21T09:44:31.184Z,13.566589
2023-03-21T09:45:40.929Z,13.717651
2023-03-21T09:46:50.621Z,13.969421
2023-03-21T09:47:58.325Z,14.180908
2023-03-21T09:49:07.986Z,14.442749
2023-03-21T09:50:15.699Z,14.654236
2023-03-21T09:51:25.377Z,14.83551
2023-03-21T09:52:35.068Z,14.70459
2023-03-21T09:53:44.732Z,14.432678
2023-03-21T09:54:54.402Z,14.180908
2023-03-21T09:56:03.137Z,13.94928
2023-03-21T09:57:10.915Z,13.788147
2023-03-21T09:58:20.436Z,13.929138
2023-03-21T09:59:31.792Z,13.919067
2023-03-21T10:00:39.874Z,14.029846
2023-03-21T10:01:49.456Z,14.120483
2023-03-21T10:02:58.179Z,14.281616
2023-03-21T10:04:07.861Z,14.321899
2023-03-21T10:05:16.515Z,14.221191
2023-03-21T10:06:26.248Z,14.281616
2023-03-21T10:07:35.915Z,14.503174
2023-03-21T10:08:43.606Z,14.694519
2023-03-21T10:09:53.380Z,14.916077
2023-03-21T10:11:03.273Z,15.057068
2023-03-21T10:12:10.937Z,15.147705
2023-03-21T10:13:20.622Z,15.349121
2023-03-21T10:14:29.318Z,15.369263
2023-03-21T10:15:38.184Z,14.996643
2023-03-21T10:16:47.786Z,15.036926
2023-03-21T10:17:56.182Z,15.067139
2023-03-21T10:19:04.867Z,15.097351
2023-03-21T10:20:14.565Z,15.016785
2023-03-21T10:21:43.319Z,15.08728
2023-03-21T10:22:33.939Z,15.036926
2023-03-21T10:23:43.636Z,14.986572
2023-03-21T10:24:53.398Z,14.724731
2023-03-21T10:26:03.104Z,14.634094
2023-03-21T10:27:12.800Z,14.654236
2023-03-21T10:28:22.492Z,14.785156
2023-03-21T10:29:33.207Z,14.885864
2023-03-21T10:30:41.914Z,14.815369
2023-03-21T10:31:51.655Z,14.916077
2023-03-21T10:33:00.287Z,15.057068
2023-03-21T10:34:10.003Z,15.147705
2023-03-21T10:35:19.727Z,15.137634
2023-03-21T10:36:27.418Z,15.036926
2023-03-21T10:37:37.111Z,15.147705
2023-03-21T10:38:46.785Z,15.308838
2023-03-21T10:39:54.524Z,15.490112
2023-03-21T10:41:04.242Z,15.288696
2023-03-21T10:42:12.922Z,14.996643
2023-03-21T10:43:21.597Z,14.936218
2023-03-21T10:44:31.285Z,14.845581
2023-03-21T10:45:39.209Z,14.815369
2023-03-21T10:46:47.898Z,14.906006
2023-03-21T10:47:57.565Z,14.775085
2023-03-21T10:49:07.079Z,14.724731
2023-03-21T10:50:16.768Z,14.966431
2023-03-21T10:51:26.461Z,15.057068
2023-03-21T10:52:35.140Z,15.288696
2023-03-21T10:53:44.848Z,15.59082
2023-03-21T10:54:54.526Z,15.792236
2023-03-21T10:56:03.216Z,15.903015
2023-03-21T10:57:12.934Z,16.195068
2023-03-21T10:58:21.621Z,16.356201
2023-03-21T10:59:31.330Z,16.416626
2023-03-21T11:00:41.020Z,16.678467
2023-03-21T11:01:49.755Z,16.889954
2023-03-21T11:03:00.400Z,16.940308
2023-03-21T11:04:09.078Z,16.889954
2023-03-21T11:05:20.686Z,16.748962
2023-03-21T11:06:28.566Z,16.507263
2023-03-21T11:07:37.242Z,16.5979
2023-03-21T11:08:46.931Z,16.567688
2023-03-21T11:09:55.622Z,16.759033
2023-03-21T11:11:03.292Z,16.869812
2023-03-21T11:12:13.015Z,17.09137
2023-03-21T11:13:20.683Z,17.463989
2023-03-21T11:14:30.370Z,17.826538
2023-03-21T11:15:40.331Z,17.886963
2023-03-21T11:16:48.854Z,17.776184
2023-03-21T11:17:58.595Z,17.202148
2023-03-21T11:19:08.224Z,16.779175
2023-03-21T11:20:16.910Z,16.537476
2023-03-21T11:21:26.607Z,16.205139
2023-03-21T11:22:36.286Z,16.195068
2023-03-21T11:23:44.973Z,16.255493
2023-03-21T11:24:54.644Z,16.748962
2023-03-21T11:26:04.326Z,17.010803
2023-03-21T11:27:14.078Z,17.272644
2023-03-21T11:28:23.751Z,17.22229
2023-03-21T11:29:31.403Z,17.423706
2023-03-21T11:30:41.173Z,17.60498
2023-03-21T11:31:48.801Z,17.695618
2023-03-21T11:32:58.488Z,17.242432
2023-03-21T11:34:08.186Z,17.061157
2023-03-21T11:35:16.553Z,17.111511
2023-03-21T11:36:25.569Z,17.413635
2023-03-21T11:37:34.331Z,17.675476
2023-03-21T11:38:43.053Z,18.048096
2023-03-21T11:39:52.746Z,18.450928
2023-03-21T11:41:01.442Z,18.964539
2023-03-21T11:42:11.105Z,19.447937
2023-03-21T11:43:20.782Z,19.729919
2023-03-21T11:44:29.482Z,19.770203
2023-03-21T11:45:39.384Z,19.518433
2023-03-21T11:46:46.987Z,19.296875
2023-03-21T11:47:56.713Z,19.135742
2023-03-21T11:49:05.320Z,18.924255
2023-03-21T11:50:15.078Z,18.632202
2023-03-21T11:51:24.676Z,18.73291
2023-03-21T11:52:32.545Z,18.964539
2023-03-21T11:53:42.009Z,19.186096
2023-03-21T11:54:51.680Z,19.3573
2023-03-21T11:56:00.350Z,19.629211
2023-03-21T11:57:09.041Z,19.48822
2023-03-21T11:58:16.726Z,19.306946
2023-03-21T11:59:25.431Z,19.155884
2023-03-21T12:00:35.134Z,18.471069
2023-03-21T12:01:42.803Z,17.997742
2023-03-21T12:02:51.519Z,18.330078
2023-03-21T12:04:01.174Z,18.863831
2023-03-21T12:05:09.830Z,19.216309
2023-03-21T12:06:19.531Z,19.407654
2023-03-21T12:07:29.240Z,18.924255
2023-03-21T12:08:37.904Z,18.954468
2023-03-21T12:09:47.626Z,19.48822
2023-03-21T12:10:56.312Z,20.24353
2023-03-21T12:12:05.033Z,20.36438
2023-03-21T12:13:14.718Z,20.072327
2023-03-21T12:14:24.404Z,20.253601
2023-03-21T12:15:34.071Z,20.394592
2023-03-21T12:16:43.747Z,20.877991
2023-03-21T12:17:52.507Z,21.50238
2023-03-21T12:19:01.178Z,21.774292
2023-03-21T12:20:10.916Z,21.99585
2023-03-21T12:21:20.664Z,21.834717
2023-03-21T12:22:30.405Z,22.015991
2023-03-21T12:23:40.217Z,22.197266
2023-03-21T12:24:49.837Z,22.469177
2023-03-21T12:25:58.516Z,22.12677
2023-03-21T12:27:07.219Z,22.167053
2023-03-21T12:28:23.883Z,22.388611
2023-03-21T12:29:27.664Z,22.831726
2023-03-21T12:30:37.415Z,22.75116
2023-03-21T12:31:47.137Z,23.023071
2023-03-21T12:32:54.785Z,22.932434
2023-03-21T12:34:04.470Z,22.680664
2023-03-21T12:35:13.126Z,22.177124
2023-03-21T12:36:22.807Z,21.915283
2023-03-21T12:37:32.628Z,21.643372
2023-03-21T12:38:42.172Z,21.764221
2023-03-21T12:39:51.839Z,21.885071
2023-03-21T12:41:01.507Z,21.62323
2023-03-21T12:42:09.177Z,21.62323
2023-03-21T12:43:18.947Z,21.854858
2023-03-21T12:44:27.620Z,22.569885
2023-03-21T12:45:44.175Z,23.365479
2023-03-21T12:46:46.036Z,23.919373
2023-03-21T12:47:55.730Z,23.657532
2023-03-21T12:49:04.346Z,23.768311
2023-03-21T12:50:14.140Z,24.201355
2023-03-21T12:51:21.778Z,24.835815
2023-03-21T12:52:31.470Z,25.429993
2023-03-21T12:53:41.260Z,25.621338
2023-03-21T12:54:49.858Z,25.621338
2023-03-21T12:55:59.527Z,25.983887
2023-03-21T12:57:08.189Z,26.02417
2023-03-21T12:58:16.884Z,26.074524
2023-03-21T12:59:26.558Z,25.983887
2023-03-21T13:00:35.267Z,26.02417
2023-03-21T13:01:44.891Z,26.245728
2023-03-21T13:02:53.572Z,25.379639
2023-03-21T13:04:02.266Z,25.278931
2023-03-21T13:05:11.913Z,25.349426
2023-03-21T13:06:21.602Z,25.7724
2023-03-21T13:07:30.265Z,25.873108
2023-03-21T13:08:39.993Z,26.104736
2023-03-21T13:09:49.818Z,26.064453
2023-03-21T13:11:00.847Z,25.883179
2023-03-21T13:12:09.007Z,25.852966
2023-03-21T13:13:16.745Z,25.852966
2023-03-21T13:14:26.413Z,25.842896
2023-03-21T13:15:35.101Z,25.409851
2023-03-21T13:16:43.798Z,25.077515
2023-03-21T13:17:53.462Z,24.986877
2023-03-21T13:19:02.138Z,24.704895
2023-03-21T13:20:11.845Z,23.869019
2023-03-21T13:21:21.470Z,23.435974
2023-03-21T13:22:29.162Z,23.284912
2023-03-21T13:23:38.861Z,23.959656
2023-03-21T13:24:48.579Z,24.110718
2023-03-21T13:25:57.292Z,23.909302
2023-03-21T13:27:06.839Z,23.738098
2023-03-21T13:28:15.538Z,23.466187